createdAt,value
2019-02-16T00:00:55.232Z,99.90
2019-02-16T00:03:24.540Z,99.90
2019-02-16T00:05:53.701Z,99.90
2019-02-16T00:08:22.652Z,99.90
2019-02-16T00:10:51.582Z,99.90
2019-02-16T00:13:20.993Z,99.90
2019-02-16T00:15:50.132Z,99.90
2019-02-16T00:18:19.332Z,99.90
2019-02-16T00:20:48.533Z,99.90
2019-02-16T00:23:17.672Z,99.90
2019-02-16T00:25:46.773Z,99.90
2019-02-16T00:28:15.941Z,99.90
2019-02-16T00:30:45.244Z,99.90
2019-02-16T00:33:14.624Z,99.90
2019-02-16T00:35:43.832Z,99.90
2019-02-16T00:38:13.013Z,99.90
2019-02-16T00:40:42.162Z,99.90
2019-02-16T00:43:11.281Z,99.90
2019-02-16T00:45:40.332Z,99.90
2019-02-16T00:48:09.634Z,99.90
2019-02-16T00:50:38.912Z,99.90
2019-02-16T00:53:08.632Z,99.90
2019-02-16T00:55:37.833Z,99.90
2019-02-16T00:58:11.651Z,99.90
2019-02-16T01:00:41.473Z,99.90
2019-02-16T01:03:10.418Z,99.90
2019-02-16T01:05:50.904Z,99.90
2019-02-16T01:08:19.319Z,99.90
2019-02-16T01:10:48.179Z,99.90
2019-02-16T01:13:17.043Z,99.90
2019-02-16T01:15:45.957Z,99.90
2019-02-16T01:18:14.855Z,99.90
2019-02-16T01:20:43.761Z,99.90
2019-02-16T01:23:12.652Z,99.90
2019-02-16T01:25:42.583Z,99.90
2019-02-16T01:28:11.554Z,99.90
2019-02-16T01:30:40.522Z,99.90
2019-02-16T01:33:09.411Z,99.90
2019-02-16T01:35:38.332Z,99.90
2019-02-16T01:38:07.350Z,99.90
2019-02-16T01:40:36.277Z,99.90
2019-02-16T01:43:05.143Z,99.90
2019-02-16T01:45:34.075Z,99.90
2019-02-16T01:48:02.969Z,99.90
2019-02-16T01:50:31.896Z,99.90
2019-02-16T01:53:00.764Z,99.90
2019-02-16T01:55:29.736Z,99.90
2019-02-16T01:57:58.789Z,99.90
2019-02-16T02:00:27.670Z,99.90
2019-02-16T02:02:56.542Z,99.90
2019-02-16T02:05:25.519Z,99.90
2019-02-16T02:07:54.386Z,99.90
2019-02-16T02:10:23.316Z,99.90
2019-02-16T02:12:52.231Z,99.90
2019-02-16T02:15:21.088Z,99.90
2019-02-16T02:17:50.132Z,99.90
2019-02-16T02:20:19.005Z,99.90
2019-02-16T02:22:47.948Z,99.90
2019-02-16T02:25:16.818Z,99.90
2019-02-16T02:27:45.905Z,99.90
2019-02-16T02:30:14.787Z,99.90
2019-02-16T02:32:44.071Z,99.90
2019-02-16T02:35:13.442Z,99.90
2019-02-16T02:37:42.612Z,99.90
2019-02-16T02:40:12.056Z,99.90
2019-02-16T02:42:41.182Z,99.90
2019-02-16T02:45:11.532Z,99.90
2019-02-16T02:47:40.770Z,99.90
2019-02-16T02:50:09.932Z,99.90
2019-02-16T02:52:39.474Z,99.90
2019-02-16T02:55:09.293Z,99.90
2019-02-16T02:57:38.671Z,99.90
2019-02-16T03:00:10.152Z,99.90
2019-02-16T03:02:39.313Z,99.90
2019-02-16T03:05:10.282Z,99.90
2019-02-16T03:07:39.632Z,99.90
2019-02-16T03:10:09.012Z,99.90
2019-02-16T03:12:38.114Z,99.90
2019-02-16T03:15:08.013Z,99.90
2019-02-16T03:17:40.598Z,99.90
2019-02-16T03:20:09.756Z,99.90
2019-02-16T03:23:16.274Z,99.90
2019-02-16T03:25:48.436Z,99.90
2019-02-16T03:28:41.623Z,99.90
2019-02-16T03:31:29.963Z,99.90
2019-02-16T03:34:10.707Z,99.90
2019-02-16T03:36:54.350Z,99.90
2019-02-16T03:39:23.259Z,99.90
2019-02-16T03:41:52.122Z,99.90
2019-02-16T03:44:21.052Z,99.90
2019-02-16T03:46:49.940Z,99.90
2019-02-16T03:49:18.884Z,99.90
2019-02-16T03:51:47.797Z,99.90
2019-02-16T03:54:16.652Z,99.90
2019-02-16T03:56:45.576Z,99.90
2019-02-16T03:59:14.431Z,99.90
2019-02-16T04:01:43.410Z,99.90
2019-02-16T04:04:12.337Z,99.90
2019-02-16T04:06:41.196Z,99.90
2019-02-16T04:09:10.136Z,99.90
2019-02-16T04:11:39.007Z,99.90
2019-02-16T04:14:07.918Z,99.90
2019-02-16T04:16:36.861Z,99.90
2019-02-16T04:19:05.782Z,99.90
2019-02-16T04:21:34.748Z,99.90
2019-02-16T04:24:03.590Z,99.90
2019-02-16T04:26:32.464Z,99.90
2019-02-16T04:29:01.374Z,99.90
2019-02-16T04:31:30.261Z,99.90
2019-02-16T04:33:59.214Z,99.90
2019-02-16T04:36:28.087Z,99.90
2019-02-16T04:38:57.020Z,99.90
2019-02-16T04:41:25.945Z,99.90
2019-02-16T04:43:54.921Z,99.90
2019-02-16T04:46:23.860Z,99.90
2019-02-16T04:48:52.789Z,99.90
2019-02-16T04:51:34.250Z,99.90
2019-02-16T04:54:02.736Z,99.90
2019-02-16T04:56:31.702Z,99.90
2019-02-16T04:59:00.560Z,99.90
2019-02-16T05:01:29.459Z,99.90
2019-02-16T05:03:58.412Z,99.90
2019-02-16T05:06:27.297Z,99.90
2019-02-16T05:08:56.215Z,99.90
2019-02-16T05:11:25.102Z,99.90
2019-02-16T05:13:54.020Z,99.90
2019-02-16T05:16:22.991Z,99.90
2019-02-16T05:18:51.836Z,99.90
2019-02-16T05:21:20.784Z,99.90
2019-02-16T05:23:49.663Z,99.90
2019-02-16T05:26:18.539Z,99.90
2019-02-16T05:28:47.532Z,99.90
2019-02-16T05:31:16.420Z,99.90
2019-02-16T05:33:45.379Z,99.90
2019-02-16T05:36:14.243Z,99.90
2019-02-16T05:38:43.176Z,99.90
2019-02-16T05:41:12.093Z,99.90
2019-02-16T05:43:40.997Z,99.90
2019-02-16T05:46:10.453Z,99.90
2019-02-16T05:48:39.466Z,99.90
2019-02-16T05:51:08.390Z,99.90
2019-02-16T05:53:37.253Z,99.90
2019-02-16T05:56:06.193Z,99.90
2019-02-16T05:58:35.043Z,99.90
2019-02-16T06:01:03.983Z,99.90
2019-02-16T06:03:32.927Z,99.90
2019-02-16T06:06:01.795Z,99.90
2019-02-16T06:08:30.749Z,99.90
2019-02-16T06:10:59.670Z,99.90
2019-02-16T06:13:28.552Z,99.90
2019-02-16T06:15:57.439Z,99.90
2019-02-16T06:18:26.314Z,99.90
2019-02-16T06:20:55.330Z,99.90
2019-02-16T06:23:24.278Z,99.90
2019-02-16T06:25:53.193Z,99.90
2019-02-16T06:28:22.042Z,99.90
2019-02-16T06:30:51.084Z,99.90
2019-02-16T06:33:19.939Z,99.90
2019-02-16T06:35:50.624Z,99.90
2019-02-16T06:38:19.489Z,99.90
2019-02-16T06:40:48.342Z,99.90
2019-02-16T06:43:17.316Z,99.90
2019-02-16T06:45:46.226Z,99.90
2019-02-16T06:48:15.097Z,99.90
2019-02-16T06:50:43.959Z,99.90
2019-02-16T06:53:13.714Z,99.90
2019-02-16T06:55:44.394Z,99.90
2019-02-16T06:58:13.494Z,99.90
2019-02-16T07:00:42.416Z,99.90
2019-02-16T07:03:11.252Z,99.90
2019-02-16T07:05:40.161Z,99.90
2019-02-16T07:08:09.144Z,99.90
2019-02-16T07:10:48.638Z,99.90
2019-02-16T07:13:17.412Z,99.90
2019-02-16T07:15:48.292Z,99.90
2019-02-16T07:18:21.674Z,99.90
2019-02-16T07:20:51.362Z,99.90
2019-02-16T07:23:22.441Z,99.90
2019-02-16T07:25:51.572Z,99.90
2019-02-16T07:28:20.645Z,99.90
2019-02-16T07:30:49.832Z,99.90
2019-02-16T07:33:18.962Z,99.90
2019-02-16T07:35:48.302Z,99.90
2019-02-16T07:38:17.362Z,99.90
2019-02-16T07:40:46.752Z,99.90
2019-02-16T07:43:17.492Z,99.90
2019-02-16T07:45:48.353Z,99.90
2019-02-16T07:48:19.032Z,99.90
2019-02-16T07:50:52.862Z,99.90
2019-02-16T07:53:31.120Z,99.90
2019-02-16T07:56:05.244Z,99.90
2019-02-16T07:58:38.746Z,99.90
2019-02-16T08:01:09.269Z,99.90
2019-02-16T08:03:42.733Z,99.90
2019-02-16T08:06:22.150Z,99.90
2019-02-16T08:08:55.590Z,99.90
2019-02-16T08:11:35.282Z,99.90
2019-02-16T08:14:08.707Z,99.90
2019-02-16T08:16:54.375Z,99.90
2019-02-16T08:19:27.894Z,99.90
2019-02-16T08:21:58.306Z,99.90
2019-02-16T08:24:38.735Z,99.90
2019-02-16T08:27:27.237Z,99.90
2019-02-16T08:29:57.898Z,99.90
2019-02-16T08:32:28.456Z,99.90
2019-02-16T08:34:58.897Z,99.90
2019-02-16T08:37:38.522Z,99.90
2019-02-16T08:40:09.335Z,99.90
2019-02-16T08:42:45.313Z,99.90
2019-02-16T08:45:16.882Z,99.90
2019-02-16T08:47:50.502Z,99.90
2019-02-16T08:50:24.042Z,99.90
2019-02-16T08:53:06.582Z,99.90
2019-02-16T08:55:37.262Z,99.90
2019-02-16T08:58:10.542Z,99.90
2019-02-16T09:00:57.712Z,99.90
2019-02-16T09:03:43.662Z,99.90
2019-02-16T09:06:14.453Z,97.20
2019-02-16T09:09:02.652Z,94.70
2019-02-16T09:11:45.045Z,92.50
2019-02-16T09:14:21.366Z,91.80
2019-02-16T09:17:08.624Z,92.40
2019-02-16T09:19:39.170Z,93.30
2019-02-16T09:22:21.790Z,93.60
2019-02-16T09:24:55.350Z,92.50
2019-02-16T09:27:25.741Z,90.80
2019-02-16T09:30:14.864Z,88.70
2019-02-16T09:32:48.362Z,90.10
2019-02-16T09:35:25.012Z,86.30
2019-02-16T09:38:07.497Z,87.40
2019-02-16T09:40:43.869Z,84.50
2019-02-16T09:43:16.829Z,86.30
2019-02-16T09:45:47.250Z,84.60
2019-02-16T09:48:23.208Z,84.80
2019-02-16T09:51:17.162Z,84.60
2019-02-16T09:54:12.835Z,84.40
2019-02-16T09:56:55.018Z,86.30
2019-02-16T10:02:27.471Z,86.80
2019-02-16T10:04:58.222Z,84.90
2019-02-16T10:07:47.142Z,81.20
2019-02-16T10:10:20.611Z,78.30
2019-02-16T10:12:54.124Z,74.50
2019-02-16T10:15:46.518Z,74.50
2019-02-16T10:18:26.792Z,72.00
2019-02-16T10:21:00.235Z,70.90
2019-02-16T10:23:30.981Z,71.90
2019-02-16T10:26:14.161Z,70.50
2019-02-16T10:28:47.642Z,71.50
2019-02-16T10:31:21.182Z,71.20
2019-02-16T10:34:08.212Z,67.90
2019-02-16T10:36:38.923Z,70.20
2019-02-16T10:39:27.652Z,62.90
2019-02-16T10:42:09.992Z,59.20
2019-02-16T10:44:40.903Z,60.70
2019-02-16T10:47:11.361Z,57.60
2019-02-16T10:49:58.171Z,60.30
2019-02-16T10:52:31.610Z,56.30
2019-02-16T10:55:02.111Z,54.60
2019-02-16T10:57:38.351Z,53.70
2019-02-16T11:00:10.266Z,50.60
2019-02-16T11:02:41.192Z,49.10
2019-02-16T11:05:11.699Z,47.30
2019-02-16T11:07:54.341Z,45.20
2019-02-16T11:10:39.952Z,47.20
2019-02-16T11:13:16.622Z,46.50
2019-02-16T11:15:56.077Z,45.60
2019-02-16T11:18:44.571Z,44.80
2019-02-16T11:21:14.979Z,45.50
2019-02-16T11:23:45.564Z,45.00
2019-02-16T11:26:30.916Z,45.90
2019-02-16T11:29:04.146Z,47.50
2019-02-16T11:31:46.422Z,45.70
2019-02-16T11:34:16.964Z,45.60
2019-02-16T11:36:47.460Z,43.00
2019-02-16T11:39:17.991Z,43.40
2019-02-16T11:41:51.384Z,42.60
2019-02-16T11:44:24.656Z,41.60
2019-02-16T11:47:00.806Z,44.70
2019-02-16T11:49:37.582Z,42.30
2019-02-16T11:52:08.472Z,42.40
2019-02-16T11:54:54.054Z,39.20
2019-02-16T11:57:24.762Z,39.70
2019-02-16T12:00:13.242Z,41.50
2019-02-16T12:02:43.942Z,40.90
2019-02-16T12:05:30.022Z,40.10
2019-02-16T12:08:04.063Z,40.30
2019-02-16T12:10:34.782Z,40.20
2019-02-16T12:13:08.422Z,40.70
2019-02-16T12:15:41.684Z,40.60
2019-02-16T12:18:15.592Z,41.00
2019-02-16T12:20:52.273Z,39.80
2019-02-16T12:23:25.982Z,39.90
2019-02-16T12:25:59.862Z,38.50
2019-02-16T12:28:47.052Z,37.70
2019-02-16T12:31:17.793Z,38.00
2019-02-16T12:33:55.976Z,38.20
2019-02-16T12:36:26.972Z,38.00
2019-02-16T12:39:04.656Z,37.80
2019-02-16T12:41:33.172Z,38.10
2019-02-16T12:44:06.932Z,38.10
2019-02-16T12:46:43.742Z,38.50
2019-02-16T12:49:29.562Z,38.90
2019-02-16T12:52:00.273Z,38.60
2019-02-16T12:54:33.653Z,39.80
2019-02-16T12:57:13.030Z,38.70
2019-02-16T12:59:46.328Z,39.20
2019-02-16T13:02:16.754Z,39.10
2019-02-16T13:04:58.954Z,39.10
2019-02-16T13:07:32.226Z,38.70
2019-02-16T13:10:17.699Z,37.20
2019-02-16T13:12:48.235Z,36.80
2019-02-16T13:15:21.588Z,37.20
2019-02-16T13:18:00.732Z,36.70
2019-02-16T13:20:42.106Z,36.30
2019-02-16T13:23:15.593Z,36.20
2019-02-16T13:25:46.232Z,35.70
2019-02-16T13:28:19.796Z,35.30
2019-02-16T13:30:50.632Z,34.00
2019-02-16T13:33:21.423Z,33.80
2019-02-16T13:35:52.313Z,33.90
2019-02-16T13:38:23.102Z,33.40
2019-02-16T13:40:53.822Z,32.60
2019-02-16T13:43:42.865Z,31.80
2019-02-16T13:46:29.662Z,31.20
2019-02-16T13:49:00.302Z,31.20
2019-02-16T13:51:31.042Z,30.20
2019-02-16T13:54:07.391Z,31.30
2019-02-16T13:56:53.382Z,31.20
2019-02-16T13:59:24.272Z,32.10
2019-02-16T14:01:55.042Z,32.60
2019-02-16T14:04:25.632Z,32.60
2019-02-16T14:07:06.354Z,33.30
2019-02-16T14:09:45.595Z,34.20
2019-02-16T14:12:22.102Z,34.80
2019-02-16T14:14:55.842Z,35.10
2019-02-16T14:17:41.632Z,35.80
2019-02-16T14:20:10.962Z,37.50
2019-02-16T14:22:41.032Z,38.10
2019-02-16T14:25:11.731Z,38.90
2019-02-16T14:27:41.103Z,40.40
2019-02-16T14:30:12.503Z,40.40
2019-02-16T14:32:41.642Z,41.30
2019-02-16T14:35:10.964Z,42.00
2019-02-16T14:37:44.932Z,42.70
2019-02-16T14:40:24.422Z,43.20
2019-02-16T14:42:53.582Z,43.40
2019-02-16T14:45:22.754Z,43.80
2019-02-16T14:47:52.042Z,43.00
2019-02-16T14:50:21.212Z,44.10
2019-02-16T14:52:50.583Z,44.90
2019-02-16T14:55:19.623Z,45.60
2019-02-16T14:57:48.559Z,46.20
2019-02-16T15:00:17.455Z,47.10
2019-02-16T15:02:46.379Z,48.30
2019-02-16T15:05:15.234Z,49.30
2019-02-16T15:07:44.163Z,50.20
2019-02-16T15:10:14.147Z,53.10
2019-02-16T15:12:43.066Z,56.00
2019-02-16T15:15:12.235Z,58.50
2019-02-16T15:17:41.178Z,62.50
2019-02-16T15:20:15.338Z,64.80
2019-02-16T15:22:44.464Z,68.10
2019-02-16T15:25:13.428Z,69.00
2019-02-16T15:27:42.406Z,70.50
2019-02-16T15:30:16.508Z,72.90
2019-02-16T15:32:45.556Z,74.90
2019-02-16T15:35:14.485Z,75.70
2019-02-16T15:37:43.539Z,77.80
2019-02-16T15:40:21.708Z,79.30
2019-02-16T15:42:51.894Z,79.90
2019-02-16T15:45:21.001Z,80.90
2019-02-16T15:47:50.171Z,83.20
2019-02-16T15:50:19.502Z,84.20
2019-02-16T15:52:49.142Z,86.10
2019-02-16T15:55:18.551Z,86.60
2019-02-16T15:57:47.936Z,87.20
2019-02-16T16:00:24.752Z,89.20
2019-02-16T16:02:54.273Z,89.70
2019-02-16T16:05:23.471Z,91.00
2019-02-16T16:07:54.161Z,91.50
2019-02-16T16:10:24.721Z,91.70
2019-02-16T16:12:58.951Z,91.80
2019-02-16T16:15:29.692Z,92.50
2019-02-16T16:18:09.712Z,92.70
2019-02-16T16:20:40.596Z,93.50
2019-02-16T16:23:26.781Z,93.70
2019-02-16T16:25:57.824Z,94.10
2019-02-16T16:28:31.541Z,94.90
2019-02-16T16:31:08.002Z,95.00
2019-02-16T16:33:41.851Z,95.90
2019-02-16T16:36:21.382Z,96.40
2019-02-16T16:38:52.041Z,96.50
2019-02-16T16:41:34.733Z,96.80
2019-02-16T16:44:14.711Z,97.50
2019-02-16T16:46:51.383Z,98.10
2019-02-16T16:49:28.402Z,98.10
2019-02-16T16:52:07.912Z,98.60
2019-02-16T16:54:48.242Z,98.90
2019-02-16T16:57:19.112Z,99.40
2019-02-16T17:00:04.971Z,99.90
2019-02-16T17:02:41.762Z,99.80
2019-02-16T17:05:12.644Z,99.90
2019-02-16T17:07:46.593Z,99.90
2019-02-16T17:10:26.181Z,99.90
2019-02-16T17:13:09.023Z,99.90
2019-02-16T17:15:56.052Z,99.90
2019-02-16T17:18:42.973Z,99.90
2019-02-16T17:21:16.543Z,99.90
2019-02-16T17:23:47.802Z,99.90
2019-02-16T17:26:21.462Z,99.90
2019-02-16T17:28:52.161Z,99.90
2019-02-16T17:31:25.932Z,99.90
2019-02-16T17:33:56.862Z,99.90
2019-02-16T17:36:30.069Z,99.90
2019-02-16T17:39:12.554Z,99.90
2019-02-16T17:41:51.964Z,99.90
2019-02-16T17:44:25.872Z,99.90
2019-02-16T17:47:03.058Z,99.90
2019-02-16T17:49:40.327Z,99.90
2019-02-16T17:52:22.956Z,99.90
2019-02-16T17:54:54.671Z,99.90
2019-02-16T17:57:31.320Z,99.90
2019-02-16T18:00:19.934Z,99.90
2019-02-16T18:03:02.336Z,99.90
2019-02-16T18:05:41.864Z,99.90
2019-02-16T18:08:12.298Z,99.90
2019-02-16T18:10:45.844Z,99.90
2019-02-16T18:13:19.026Z,99.90
2019-02-16T18:15:49.614Z,99.90
2019-02-16T18:18:23.124Z,99.90
2019-02-16T18:20:56.485Z,99.90
2019-02-16T18:23:38.860Z,99.90
2019-02-16T18:26:14.901Z,99.90
2019-02-16T18:29:03.633Z,99.90
2019-02-16T18:31:49.234Z,99.90
2019-02-16T18:34:19.724Z,99.90
2019-02-16T18:36:59.258Z,99.90
2019-02-16T18:39:41.442Z,99.90
2019-02-16T18:42:14.465Z,99.90
2019-02-16T18:44:50.574Z,99.90
2019-02-16T18:47:27.193Z,99.90
2019-02-16T18:50:16.231Z,99.90
2019-02-16T18:52:55.535Z,99.90
2019-02-16T18:55:29.035Z,99.90
2019-02-16T18:57:59.642Z,99.90
2019-02-16T19:00:30.096Z,99.90
2019-02-16T19:03:00.641Z,99.90
2019-02-16T19:05:33.717Z,99.90
2019-02-16T19:08:22.516Z,99.90
2019-02-16T19:10:52.986Z,99.90
2019-02-16T19:13:41.637Z,99.90
2019-02-16T19:16:17.910Z,99.90
2019-02-16T19:18:54.272Z,99.90
2019-02-16T19:21:41.036Z,99.90
2019-02-16T19:24:14.514Z,99.90
2019-02-16T19:26:44.958Z,99.90
2019-02-16T19:29:18.492Z,99.90
2019-02-16T19:31:54.912Z,99.90
2019-02-16T19:34:32.082Z,99.90
2019-02-16T19:37:09.072Z,99.90
2019-02-16T19:39:57.542Z,99.90
2019-02-16T19:42:30.872Z,99.90
2019-02-16T19:45:10.150Z,99.90
2019-02-16T19:47:58.548Z,99.90
2019-02-16T19:50:44.553Z,99.90
2019-02-16T19:53:31.336Z,99.90
2019-02-16T19:56:01.806Z,99.90
2019-02-16T19:58:48.386Z,99.90
2019-02-16T20:01:25.372Z,99.90
2019-02-16T20:03:56.292Z,99.90
2019-02-16T20:06:27.032Z,99.90
2019-02-16T20:09:03.802Z,99.90
2019-02-16T20:11:34.631Z,99.90
2019-02-16T20:14:05.512Z,99.90
2019-02-16T20:16:36.541Z,99.90
2019-02-16T20:19:07.462Z,99.90
2019-02-16T20:21:52.161Z,99.90
2019-02-16T20:24:22.672Z,99.90
2019-02-16T20:26:56.502Z,99.90
2019-02-16T20:29:33.333Z,99.90
2019-02-16T20:32:07.131Z,99.90
2019-02-16T20:34:41.231Z,99.90
2019-02-16T20:37:21.022Z,99.90
2019-02-16T20:39:55.041Z,99.90
2019-02-16T20:42:44.032Z,99.90
2019-02-16T20:45:26.632Z,99.90
2019-02-16T20:47:57.482Z,99.90
2019-02-16T20:50:43.522Z,99.90
2019-02-16T20:53:14.404Z,99.90
2019-02-16T20:55:59.982Z,99.90
2019-02-16T20:58:46.702Z,99.90
2019-02-16T21:01:33.332Z,99.90
2019-02-16T21:04:04.181Z,99.90
2019-02-16T21:06:34.952Z,99.90
2019-02-16T21:09:08.799Z,99.90
2019-02-16T21:11:48.742Z,99.90
2019-02-16T21:14:25.643Z,99.90
2019-02-16T21:17:08.342Z,99.90
2019-02-16T21:19:39.382Z,99.90
2019-02-16T21:22:10.226Z,99.90
2019-02-16T21:24:44.032Z,99.90
2019-02-16T21:27:14.842Z,99.90
2019-02-16T21:29:55.161Z,99.90
2019-02-16T21:32:28.399Z,99.90
2019-02-16T21:35:15.011Z,99.90
2019-02-16T21:38:01.628Z,99.90
2019-02-16T21:40:37.759Z,99.90
2019-02-16T21:43:11.134Z,99.90
2019-02-16T21:45:53.370Z,99.90
2019-02-16T21:48:23.925Z,99.90
2019-02-16T21:50:54.412Z,99.90
2019-02-16T21:53:24.918Z,99.90
2019-02-16T21:55:56.102Z,99.90
2019-02-16T21:58:26.843Z,99.90
2019-02-16T22:01:12.389Z,99.90
2019-02-16T22:04:00.989Z,99.90
2019-02-16T22:06:34.464Z,99.90
2019-02-16T22:09:20.027Z,99.90
2019-02-16T22:11:54.278Z,99.90
2019-02-16T22:14:25.567Z,99.90
2019-02-16T22:16:54.625Z,99.90
2019-02-16T22:19:23.576Z,99.90
2019-02-16T22:21:52.454Z,99.90
2019-02-16T22:24:21.393Z,99.90
2019-02-16T22:26:50.329Z,99.90
2019-02-16T22:29:19.179Z,99.90
2019-02-16T22:31:48.135Z,99.90
2019-02-16T22:34:17.065Z,99.90
2019-02-16T22:36:46.016Z,99.90
2019-02-16T22:39:14.986Z,99.90
2019-02-16T22:41:44.771Z,99.90
2019-02-16T22:44:14.112Z,99.90
2019-02-16T22:46:43.391Z,99.90
2019-02-16T22:49:12.664Z,99.90
2019-02-16T22:51:41.792Z,99.90
2019-02-16T22:54:10.995Z,99.90
2019-02-16T22:56:40.251Z,99.90
2019-02-16T22:59:09.652Z,99.90
2019-02-16T23:01:39.042Z,99.90
2019-02-16T23:04:08.482Z,99.90
2019-02-16T23:06:38.691Z,99.90
2019-02-16T23:09:10.593Z,99.90
2019-02-16T23:11:39.902Z,99.90
2019-02-16T23:14:09.104Z,99.90
2019-02-16T23:16:38.432Z,99.90
2019-02-16T23:19:08.181Z,99.90
2019-02-16T23:21:37.444Z,99.90
2019-02-16T23:24:06.572Z,99.90
2019-02-16T23:26:36.031Z,99.90
2019-02-16T23:29:05.531Z,99.90
2019-02-16T23:31:34.793Z,99.90
2019-02-16T23:34:03.811Z,99.90
2019-02-16T23:36:32.961Z,99.90
2019-02-16T23:39:02.273Z,99.90
2019-02-16T23:41:31.411Z,99.90
2019-02-16T23:44:00.691Z,99.90
2019-02-16T23:46:30.052Z,99.90
2019-02-16T23:48:59.244Z,99.90
2019-02-16T23:51:28.621Z,99.90
2019-02-16T23:53:57.951Z,99.90
2019-02-16T23:56:27.321Z,99.90
2019-02-16T23:58:56.602Z,99.90
